MSC Stella — H8PA — position and weather

sailwx.info

Track history (hours):
 
Tides and Currents Weather Stations Pressure Air Temp Water Temp Dewpoint Dewpoint Depression Visibility Wind Speed Wind Dir Waves Ship Positions

MSC Stella

Last reported at 2018-Jun-21 00:30 UTC. Time now 2018-Jun-21 00:50 UTC.
Position N 01°16' E 103°46'.

Length 304 m; draft 11.1 m.

Type: Ship (hazmat cat A). MMSI: 352983000.

Date/timePositionNaut miles runAvg speedWind from/ knotsBaromVisibWave heightAir tempDewpointWater temp
2018-Jun-21 00:30N 01°16' E 103°46'0 0.0
2018-Jun-21 00:01N 01°16' E 103°46'0 0.0
2018-Jun-20 23:30N 01°16' E 103°46'1 1.5
2018-Jun-20 23:00N 01°16' E 103°46'1 1.4
2018-Jun-20 22:30N 01°15' E 103°47'0 0.9
2018-Jun-20 22:00N 01°15' E 103°46'2 4.9
2018-Jun-20 21:29N 01°15' E 103°44'510.6
2018-Jun-20 21:00N 01°12' E 103°39'4 8.4
2018-Jun-20 20:30N 01°13' E 103°35'4 8.3
2018-Jun-20 20:01N 01°10' E 103°32'713.9
2018-Jun-20 19:29N 01°11' E 103°25'815.1
2018-Jun-20 18:58N 01°16' E 103°19'817.5
2018-Jun-20 18:31N 01°21' E 103°13'  
Track history (hours):
 
Tides and Currents Weather Stations Pressure Air Temp Water Temp Dewpoint Dewpoint Depression Visibility Wind Speed Wind Dir Waves Ship Positions

MSC Stella

Last reported at 2018-Jun-21 00:30 UTC. Time now 2018-Jun-21 00:50 UTC.
Position N 01°16' E 103°46'.

Length 304 m; draft 11.1 m.

Type: Ship (hazmat cat A). MMSI: 352983000.

Date/timePositionNaut miles runAvg speedWind from/ knotsBaromVisibWave heightAir tempDewpointWater temp
2018-Jun-21 00:30N 01°16' E 103°46'0 0.0
2018-Jun-21 00:01N 01°16' E 103°46'0 0.0
2018-Jun-20 23:30N 01°16' E 103°46'1 1.5
2018-Jun-20 23:00N 01°16' E 103°46'1 1.4
2018-Jun-20 22:30N 01°15' E 103°47'0 0.9
2018-Jun-20 22:00N 01°15' E 103°46'2 4.9
2018-Jun-20 21:29N 01°15' E 103°44'510.6
2018-Jun-20 21:00N 01°12' E 103°39'4 8.4
2018-Jun-20 20:30N 01°13' E 103°35'4 8.3
2018-Jun-20 20:01N 01°10' E 103°32'713.9
2018-Jun-20 19:29N 01°11' E 103°25'815.1
2018-Jun-20 18:58N 01°16' E 103°19'817.5
2018-Jun-20 18:31N 01°21' E 103°13'  

Dump ship's entire track history